createdAt,value
2019-02-06T00:00:13.852Z,0.00
2019-02-06T00:01:13.958Z,0.00
2019-02-06T00:02:14.181Z,0.00
2019-02-06T00:03:14.376Z,0.00
2019-02-06T00:04:15.563Z,0.00
2019-02-06T00:05:15.833Z,0.00
2019-02-06T00:06:14.991Z,0.00
2019-02-06T00:07:15.217Z,0.00
2019-02-06T00:08:15.550Z,0.00
2019-02-06T00:09:15.639Z,0.00
2019-02-06T00:10:15.821Z,0.00
2019-02-06T00:11:16.075Z,0.00
2019-02-06T00:12:16.286Z,0.00
2019-02-06T00:13:22.580Z,0.00
2019-02-06T00:14:16.723Z,0.00
2019-02-06T00:15:16.917Z,0.00
2019-02-06T00:16:17.229Z,0.00
2019-02-06T00:17:17.332Z,0.00
2019-02-06T00:18:17.502Z,0.00
2019-02-06T00:19:17.754Z,0.00
2019-02-06T00:20:17.923Z,0.00
2019-02-06T00:21:20.373Z,0.00
2019-02-06T00:22:18.341Z,0.00
2019-02-06T00:23:18.557Z,0.00
2019-02-06T00:24:18.797Z,0.00
2019-02-06T00:25:18.955Z,0.00
2019-02-06T00:26:19.164Z,0.00
2019-02-06T00:27:19.362Z,0.00
2019-02-06T00:28:19.563Z,0.00
2019-02-06T00:29:19.785Z,0.00
2019-02-06T00:30:19.978Z,0.00
2019-02-06T00:31:20.196Z,0.00
2019-02-06T00:32:20.445Z,0.00
2019-02-06T00:33:20.584Z,0.00
2019-02-06T00:34:20.827Z,0.00
2019-02-06T00:35:25.794Z,0.00
2019-02-06T00:36:22.242Z,0.00
2019-02-06T00:37:21.452Z,0.00
2019-02-06T00:38:21.639Z,0.00
2019-02-06T00:39:21.828Z,0.00
2019-02-06T00:40:22.306Z,0.00
2019-02-06T00:41:22.388Z,0.00
2019-02-06T00:42:22.490Z,0.00
2019-02-06T00:43:22.683Z,0.00
2019-02-06T00:44:22.889Z,0.00
2019-02-06T00:45:23.113Z,0.00
2019-02-06T00:46:23.300Z,0.00
2019-02-06T00:47:23.530Z,0.00
2019-02-06T00:48:23.715Z,0.00
2019-02-06T00:49:24.005Z,0.00
2019-02-06T00:50:24.130Z,0.00
2019-02-06T00:51:24.332Z,0.00
2019-02-06T00:52:24.561Z,0.00
2019-02-06T00:53:24.742Z,0.00
2019-02-06T00:54:24.955Z,0.00
2019-02-06T00:55:25.196Z,0.00
2019-02-06T00:56:25.381Z,0.00
2019-02-06T00:57:25.676Z,0.00
2019-02-06T00:58:25.772Z,0.00
2019-02-06T00:59:25.991Z,0.00
2019-02-06T01:00:26.245Z,0.00
2019-02-06T01:01:26.426Z,0.00
2019-02-06T01:02:26.659Z,0.00
2019-02-06T01:03:26.850Z,0.00
2019-02-06T01:04:27.059Z,0.00
2019-02-06T01:05:37.443Z,0.00
2019-02-06T01:06:28.433Z,0.00
2019-02-06T01:07:27.684Z,0.00
2019-02-06T01:08:27.866Z,0.00
2019-02-06T01:09:28.070Z,0.00
2019-02-06T01:10:28.336Z,0.00
2019-02-06T01:11:28.494Z,0.00
2019-02-06T01:12:28.704Z,0.00
2019-02-06T01:13:28.964Z,0.00
2019-02-06T01:14:29.309Z,0.00
2019-02-06T01:15:29.659Z,0.00
2019-02-06T01:16:29.547Z,0.00
2019-02-06T01:17:29.750Z,0.00
2019-02-06T01:18:29.957Z,0.00
2019-02-06T01:19:30.176Z,0.00
2019-02-06T01:20:30.454Z,0.00
2019-02-06T01:21:30.598Z,0.00
2019-02-06T01:22:30.887Z,0.00
2019-02-06T01:23:31.003Z,0.00
2019-02-06T01:24:31.211Z,0.00
2019-02-06T01:25:31.461Z,0.00
2019-02-06T01:26:31.618Z,0.00
2019-02-06T01:27:31.837Z,0.00
2019-02-06T01:28:32.011Z,0.00
2019-02-06T01:29:32.238Z,0.00
2019-02-06T01:30:32.606Z,0.00
2019-02-06T01:31:32.663Z,0.00
2019-02-06T01:32:32.910Z,0.00
2019-02-06T01:33:33.069Z,0.00
2019-02-06T01:34:33.293Z,0.00
2019-02-06T01:35:33.539Z,0.00
2019-02-06T01:36:33.714Z,0.00
2019-02-06T01:37:33.928Z,0.00
2019-02-06T01:38:34.167Z,0.00
2019-02-06T01:39:34.310Z,0.00
2019-02-06T01:40:34.589Z,0.00
2019-02-06T01:41:34.736Z,0.00
2019-02-06T01:42:35.205Z,0.00
2019-02-06T01:43:35.157Z,0.00
2019-02-06T01:44:35.354Z,0.00
2019-02-06T01:45:35.592Z,0.00
2019-02-06T01:46:35.805Z,0.00
2019-02-06T01:47:35.963Z,0.00
2019-02-06T01:48:36.168Z,0.00
2019-02-06T01:49:36.372Z,0.00
2019-02-06T01:50:36.640Z,0.00
2019-02-06T01:51:36.850Z,0.00
2019-02-06T01:52:37.012Z,0.00
2019-02-06T01:53:37.203Z,0.00
2019-02-06T01:54:37.437Z,0.00
2019-02-06T01:55:37.767Z,0.00
2019-02-06T01:56:37.805Z,0.00
2019-02-06T01:57:38.032Z,0.00
2019-02-06T01:58:38.245Z,0.00
2019-02-06T01:59:38.457Z,0.00
2019-02-06T02:00:38.746Z,0.00
2019-02-06T02:01:38.873Z,0.00
2019-02-06T02:02:39.064Z,0.00
2019-02-06T02:03:39.382Z,0.00
2019-02-06T02:04:39.502Z,0.00
2019-02-06T02:05:39.756Z,0.00
2019-02-06T02:06:39.903Z,0.00
2019-02-06T02:07:40.116Z,0.00
2019-02-06T02:08:40.349Z,0.00
2019-02-06T02:09:40.543Z,0.00
2019-02-06T02:10:40.794Z,0.00
2019-02-06T02:11:41.029Z,0.00
2019-02-06T02:12:41.134Z,0.00
2019-02-06T02:13:41.387Z,0.00
2019-02-06T02:14:41.577Z,0.00
2019-02-06T02:15:41.832Z,0.00
2019-02-06T02:16:41.978Z,0.00
2019-02-06T02:17:42.185Z,0.00
2019-02-06T02:18:42.399Z,0.00
2019-02-06T02:19:42.649Z,0.00
2019-02-06T02:20:42.854Z,0.00
2019-02-06T02:21:43.028Z,0.00
2019-02-06T02:22:43.227Z,0.00
2019-02-06T02:23:43.444Z,0.00
2019-02-06T02:24:43.612Z,0.00
2019-02-06T02:25:43.883Z,0.00
2019-02-06T02:26:44.039Z,0.00
2019-02-06T02:27:44.283Z,0.00
2019-02-06T02:28:44.629Z,0.00
2019-02-06T02:29:44.652Z,0.00
2019-02-06T02:30:44.925Z,0.00
2019-02-06T02:31:45.098Z,0.00
2019-02-06T02:32:45.292Z,0.00
2019-02-06T02:33:45.520Z,0.00
2019-02-06T02:34:45.708Z,0.00
2019-02-06T02:35:45.980Z,0.00
2019-02-06T02:36:46.242Z,0.00
2019-02-06T02:37:46.342Z,0.00
2019-02-06T02:38:46.568Z,0.00
2019-02-06T02:39:46.756Z,0.00
2019-02-06T02:40:46.989Z,0.00
2019-02-06T02:41:47.170Z,0.00
2019-02-06T02:42:47.392Z,0.00
2019-02-06T02:43:47.610Z,0.00
2019-02-06T02:44:47.914Z,0.00
2019-02-06T02:45:48.052Z,0.00
2019-02-06T02:46:48.223Z,0.00
2019-02-06T02:47:48.431Z,0.00
2019-02-06T02:48:48.653Z,0.00
2019-02-06T02:49:48.843Z,0.00
2019-02-06T02:50:49.085Z,0.00
2019-02-06T02:51:49.238Z,0.00
2019-02-06T02:52:49.526Z,0.00
2019-02-06T02:53:49.689Z,0.00
2019-02-06T02:54:49.883Z,0.00
2019-02-06T02:55:50.144Z,0.00
2019-02-06T02:56:50.296Z,0.00
2019-02-06T02:57:50.478Z,0.00
2019-02-06T02:58:50.723Z,0.00
2019-02-06T02:59:50.915Z,0.00
2019-02-06T03:00:51.191Z,0.00
2019-02-06T03:01:51.303Z,0.00
2019-02-06T03:02:51.503Z,0.00
2019-02-06T03:03:51.734Z,0.00
2019-02-06T03:04:51.935Z,0.00
2019-02-06T03:05:52.394Z,0.00
2019-02-06T03:06:52.363Z,0.00
2019-02-06T03:07:52.585Z,0.00
2019-02-06T03:08:52.814Z,0.00
2019-02-06T03:09:53.038Z,0.00
2019-02-06T03:10:53.231Z,0.00
2019-02-06T03:11:53.445Z,0.00
2019-02-06T03:12:53.636Z,0.00
2019-02-06T03:13:53.853Z,0.00
2019-02-06T03:14:54.065Z,0.00
2019-02-06T03:15:54.256Z,0.00
2019-02-06T03:16:54.549Z,0.00
2019-02-06T03:17:54.750Z,0.00
2019-02-06T03:18:54.872Z,0.00
2019-02-06T03:19:55.060Z,0.00
2019-02-06T03:20:55.280Z,0.00
2019-02-06T03:21:55.760Z,0.00
2019-02-06T03:22:55.691Z,0.00
2019-02-06T03:23:55.944Z,0.00
2019-02-06T03:24:56.117Z,0.00
2019-02-06T03:25:56.423Z,0.00
2019-02-06T03:26:56.541Z,0.00
2019-02-06T03:27:56.732Z,0.00
2019-02-06T03:28:56.945Z,0.00
2019-02-06T03:29:57.145Z,0.00
2019-02-06T03:30:57.337Z,0.00
2019-02-06T03:31:57.586Z,0.00
2019-02-06T03:32:57.800Z,0.00
2019-02-06T03:33:58.042Z,0.00
2019-02-06T03:34:58.161Z,0.00
2019-02-06T03:35:58.372Z,0.00
2019-02-06T03:36:58.603Z,0.00
2019-02-06T03:37:58.783Z,0.00
2019-02-06T03:38:59.016Z,0.00
2019-02-06T03:39:59.191Z,0.00
2019-02-06T03:40:59.403Z,0.00
2019-02-06T03:41:59.676Z,0.00
2019-02-06T03:42:59.796Z,0.00
2019-02-06T03:44:00.044Z,0.00
2019-02-06T03:45:00.289Z,0.00
2019-02-06T03:46:00.442Z,0.00
2019-02-06T03:47:00.683Z,0.00
2019-02-06T03:48:00.866Z,0.00
2019-02-06T03:49:01.062Z,0.00
2019-02-06T03:50:01.279Z,0.00
2019-02-06T03:51:01.587Z,0.00
2019-02-06T03:52:01.713Z,0.00
2019-02-06T03:53:01.875Z,0.00
2019-02-06T03:54:02.111Z,0.00
2019-02-06T03:55:02.325Z,0.00
2019-02-06T03:56:02.528Z,0.00
2019-02-06T03:57:02.764Z,0.00
2019-02-06T03:58:02.944Z,0.00
2019-02-06T03:59:03.251Z,0.00
2019-02-06T04:00:03.346Z,0.00
2019-02-06T04:01:03.553Z,0.00
2019-02-06T04:02:03.797Z,0.00
2019-02-06T04:03:03.965Z,0.00
2019-02-06T04:04:04.162Z,0.00
2019-02-06T04:05:04.368Z,0.00
2019-02-06T04:06:04.599Z,0.00
2019-02-06T04:07:04.920Z,0.00
2019-02-06T04:08:04.991Z,0.00
2019-02-06T04:09:05.200Z,0.00
2019-02-06T04:10:05.458Z,0.00
2019-02-06T04:11:05.632Z,0.00
2019-02-06T04:12:05.883Z,0.00
2019-02-06T04:13:06.045Z,0.00
2019-02-06T04:14:06.253Z,0.00
2019-02-06T04:15:06.518Z,0.00
2019-02-06T04:16:06.653Z,0.00
2019-02-06T04:17:06.900Z,0.00
2019-02-06T04:18:07.079Z,0.00
2019-02-06T04:19:07.288Z,0.00
2019-02-06T04:20:07.511Z,0.00
2019-02-06T04:21:07.702Z,0.00
2019-02-06T04:22:07.956Z,0.00
2019-02-06T04:23:08.156Z,0.00
2019-02-06T04:24:08.419Z,0.00
2019-02-06T04:25:08.590Z,0.00
2019-02-06T04:26:08.781Z,0.00
2019-02-06T04:27:09.038Z,0.00
2019-02-06T04:28:09.179Z,0.00
2019-02-06T04:29:09.401Z,0.00
2019-02-06T04:30:09.631Z,0.00
2019-02-06T04:31:09.832Z,0.00
2019-02-06T04:32:10.171Z,0.00
2019-02-06T04:33:10.231Z,0.00
2019-02-06T04:34:10.437Z,0.00
2019-02-06T04:35:10.668Z,0.00
2019-02-06T04:36:10.850Z,0.00
2019-02-06T04:37:11.115Z,0.00
2019-02-06T04:38:11.238Z,0.00
2019-02-06T04:39:11.463Z,0.00
2019-02-06T04:40:11.788Z,0.00
2019-02-06T04:41:11.898Z,0.00
2019-02-06T04:42:12.165Z,0.00
2019-02-06T04:43:12.287Z,0.00
2019-02-06T04:44:12.501Z,0.00
2019-02-06T04:45:12.757Z,0.00
2019-02-06T04:46:12.937Z,0.00
2019-02-06T04:47:13.183Z,0.00
2019-02-06T04:48:13.398Z,0.00
2019-02-06T04:49:13.536Z,0.00
2019-02-06T04:50:13.782Z,0.00
2019-02-06T04:51:13.975Z,0.00
2019-02-06T04:52:14.217Z,0.00
2019-02-06T04:53:14.380Z,0.00
2019-02-06T04:54:14.581Z,0.00
2019-02-06T04:55:14.796Z,0.00
2019-02-06T04:56:15.068Z,0.00
2019-02-06T04:57:15.224Z,0.00
2019-02-06T04:58:15.413Z,0.00
2019-02-06T04:59:15.629Z,0.00
2019-02-06T05:00:16.089Z,0.00
2019-02-06T05:01:16.029Z,0.00
2019-02-06T05:02:16.292Z,0.00
2019-02-06T05:03:16.460Z,0.00
2019-02-06T05:04:16.712Z,0.00
2019-02-06T05:05:16.930Z,0.00
2019-02-06T05:06:17.079Z,0.00
2019-02-06T05:07:19.155Z,0.00
2019-02-06T05:08:17.498Z,0.00
2019-02-06T05:09:17.694Z,0.00
2019-02-06T05:10:17.918Z,0.00
2019-02-06T05:11:18.113Z,0.00
2019-02-06T05:12:18.336Z,0.00
2019-02-06T05:13:18.656Z,0.00
2019-02-06T05:14:18.760Z,0.00
2019-02-06T05:15:18.971Z,0.00
2019-02-06T05:16:19.262Z,0.00
2019-02-06T05:17:19.349Z,0.00
2019-02-06T05:18:19.596Z,0.00
2019-02-06T05:19:19.799Z,0.00
2019-02-06T05:20:20.033Z,0.00
2019-02-06T05:21:20.307Z,0.00
2019-02-06T05:22:20.385Z,0.00
2019-02-06T05:23:20.638Z,0.00
2019-02-06T05:24:20.832Z,0.00
2019-02-06T05:25:21.091Z,0.00
2019-02-06T05:26:21.236Z,0.00
2019-02-06T05:27:21.441Z,0.00
2019-02-06T05:28:21.662Z,0.00
2019-02-06T05:29:21.909Z,0.00
2019-02-06T05:30:22.099Z,0.00
2019-02-06T05:31:22.271Z,0.00
2019-02-06T05:32:22.489Z,0.00
2019-02-06T05:33:22.733Z,0.00
2019-02-06T05:34:22.876Z,0.00
2019-02-06T05:35:23.113Z,0.00
2019-02-06T05:36:23.305Z,0.00
2019-02-06T05:37:31.507Z,0.00
2019-02-06T05:38:24.754Z,0.00
2019-02-06T05:39:23.914Z,0.00
2019-02-06T05:40:24.177Z,0.00
2019-02-06T05:41:24.358Z,0.00
2019-02-06T05:42:24.575Z,0.00
2019-02-06T05:43:24.812Z,0.00
2019-02-06T05:44:24.978Z,0.00
2019-02-06T05:45:25.229Z,0.00
2019-02-06T05:46:25.550Z,0.00
2019-02-06T05:47:25.601Z,0.00
2019-02-06T05:48:25.832Z,0.00
2019-02-06T05:49:26.011Z,0.00
2019-02-06T05:50:26.232Z,0.00
2019-02-06T05:51:26.412Z,0.00
2019-02-06T05:52:26.634Z,0.00
2019-02-06T05:53:26.870Z,0.00
2019-02-06T05:54:27.268Z,0.00
2019-02-06T05:55:27.260Z,0.00
2019-02-06T05:56:27.471Z,0.00
2019-02-06T05:57:27.690Z,0.00
2019-02-06T05:58:27.949Z,0.00
2019-02-06T05:59:28.110Z,0.00
2019-02-06T06:00:28.334Z,0.00
2019-02-06T06:01:28.518Z,0.00
2019-02-06T06:02:28.760Z,0.00
2019-02-06T06:03:28.945Z,0.00
2019-02-06T06:04:29.138Z,0.00
2019-02-06T06:05:29.359Z,4.00
2019-02-06T06:06:29.673Z,0.00
2019-02-06T06:07:29.736Z,0.00
2019-02-06T06:08:30.062Z,4.00
2019-02-06T06:09:30.166Z,0.00
2019-02-06T06:10:30.469Z,4.00
2019-02-06T06:11:30.582Z,4.00
2019-02-06T06:12:30.775Z,8.00
2019-02-06T06:13:35.637Z,8.00
2019-02-06T06:14:31.183Z,8.00
2019-02-06T06:15:31.426Z,8.00
2019-02-06T06:16:31.620Z,12.00
2019-02-06T06:17:31.815Z,12.00
2019-02-06T06:18:32.097Z,12.00
2019-02-06T06:19:32.254Z,16.00
2019-02-06T06:20:32.481Z,20.00
2019-02-06T06:21:32.654Z,24.00
2019-02-06T06:22:32.857Z,24.00
2019-02-06T06:23:33.096Z,32.00
2019-02-06T06:24:33.275Z,32.00
2019-02-06T06:25:33.457Z,40.00
2019-02-06T06:26:33.712Z,44.00
2019-02-06T06:27:33.990Z,52.00
2019-02-06T06:28:34.133Z,60.00
2019-02-06T06:29:34.294Z,68.00
2019-02-06T06:30:34.512Z,80.00
2019-02-06T06:31:34.752Z,88.00
2019-02-06T06:32:34.962Z,100.00
2019-02-06T06:33:35.187Z,112.00
2019-02-06T06:34:35.371Z,128.00
2019-02-06T06:35:35.677Z,140.00
2019-02-06T06:36:35.799Z,156.00
2019-02-06T06:37:35.990Z,168.00
2019-02-06T06:38:36.461Z,184.00
2019-02-06T06:39:36.403Z,200.00
2019-02-06T06:40:36.608Z,220.00
2019-02-06T06:41:36.815Z,240.00
2019-02-06T06:42:37.021Z,260.00
2019-02-06T06:43:37.313Z,284.00
2019-02-06T06:44:37.419Z,300.00
2019-02-06T06:45:37.632Z,324.00
2019-02-06T06:46:37.839Z,348.00
2019-02-06T06:47:38.030Z,368.00
2019-02-06T06:48:38.281Z,396.00
2019-02-06T06:49:38.460Z,416.00
2019-02-06T06:50:38.667Z,440.00
2019-02-06T06:51:38.978Z,464.00
2019-02-06T06:52:39.043Z,492.00
2019-02-06T06:53:39.306Z,516.00
2019-02-06T06:54:39.500Z,544.00
2019-02-06T06:55:39.708Z,576.00
2019-02-06T06:56:39.933Z,608.00
2019-02-06T06:57:40.126Z,644.00
2019-02-06T06:58:40.355Z,672.00
2019-02-06T06:59:40.568Z,700.00
2019-02-06T07:00:40.834Z,728.00
2019-02-06T07:01:40.968Z,768.00
2019-02-06T07:02:41.654Z,816.00
2019-02-06T07:03:41.396Z,876.00
2019-02-06T07:04:41.556Z,948.00
2019-02-06T07:05:41.783Z,996.00
2019-02-06T07:06:42.005Z,1048.00
2019-02-06T07:07:42.198Z,1092.00
2019-02-06T07:08:42.480Z,1128.00
2019-02-06T07:09:42.612Z,1164.00
2019-02-06T07:10:42.831Z,1208.00
2019-02-06T07:11:43.046Z,1240.00
2019-02-06T07:12:43.235Z,1284.00
2019-02-06T07:13:43.469Z,1344.00
2019-02-06T07:14:43.639Z,1420.00
2019-02-06T07:15:43.868Z,1504.00
2019-02-06T07:16:44.219Z,1576.00
2019-02-06T07:17:44.279Z,1616.00
2019-02-06T07:18:44.514Z,1644.00
2019-02-06T07:19:44.684Z,1688.00
2019-02-06T07:20:44.889Z,1740.00
2019-02-06T07:21:45.126Z,1812.00
2019-02-06T07:22:45.315Z,1876.00
2019-02-06T07:23:45.562Z,1924.00
2019-02-06T07:24:45.774Z,1960.00
2019-02-06T07:25:45.903Z,1992.00
2019-02-06T07:26:46.137Z,2040.00
2019-02-06T07:27:46.343Z,2112.00
2019-02-06T07:28:46.573Z,2172.00
2019-02-06T07:29:46.757Z,2232.00
2019-02-06T07:30:46.961Z,2288.00
2019-02-06T07:31:47.192Z,2352.00
2019-02-06T07:32:47.440Z,2376.00
2019-02-06T07:33:47.591Z,2368.00
2019-02-06T07:34:47.814Z,2372.00
2019-02-06T07:35:48.019Z,2368.00
2019-02-06T07:36:48.245Z,2376.00
2019-02-06T07:37:48.435Z,2392.00
2019-02-06T07:38:48.636Z,2408.00
2019-02-06T07:39:48.866Z,2436.00
2019-02-06T07:40:49.090Z,2464.00
2019-02-06T07:41:49.396Z,2480.00
2019-02-06T07:42:49.466Z,2524.00
2019-02-06T07:43:49.702Z,2564.00
2019-02-06T07:44:49.909Z,2572.00
2019-02-06T07:45:50.107Z,2556.00
2019-02-06T07:46:50.332Z,2512.00
2019-02-06T07:47:50.520Z,2468.00
2019-02-06T07:48:50.725Z,2444.00
2019-02-06T07:49:51.086Z,2448.00
2019-02-06T07:50:51.153Z,2484.00
2019-02-06T07:51:51.382Z,2508.00
2019-02-06T07:52:51.562Z,2524.00
2019-02-06T07:53:51.783Z,2536.00
2019-02-06T07:54:52.007Z,2568.00
2019-02-06T07:55:52.197Z,2604.00
2019-02-06T07:56:52.423Z,2620.00
2019-02-06T07:57:52.675Z,2616.00
2019-02-06T07:58:52.850Z,2624.00
2019-02-06T07:59:53.018Z,2672.00
2019-02-06T08:00:53.225Z,2768.00
2019-02-06T08:01:53.441Z,2904.00
2019-02-06T08:02:53.639Z,3056.00
2019-02-06T08:03:53.868Z,3124.00
2019-02-06T08:04:54.072Z,3224.00
2019-02-06T08:05:54.327Z,3288.00
2019-02-06T08:06:54.483Z,3364.00
2019-02-06T08:07:54.709Z,3424.00
2019-02-06T08:08:54.867Z,3488.00
2019-02-06T08:09:55.102Z,3500.00
2019-02-06T08:10:55.283Z,3484.00
2019-02-06T08:11:55.491Z,3452.00
2019-02-06T08:12:55.701Z,3452.00
2019-02-06T08:13:56.003Z,3448.00
2019-02-06T08:14:56.163Z,3408.00
2019-02-06T08:15:56.300Z,3372.00
2019-02-06T08:16:56.775Z,3336.00
2019-02-06T08:17:56.748Z,3308.00
2019-02-06T08:18:56.966Z,3276.00
2019-02-06T08:19:57.198Z,3260.00
2019-02-06T08:20:57.370Z,3288.00
2019-02-06T08:21:57.605Z,3248.00
2019-02-06T08:22:57.923Z,3248.00
2019-02-06T08:23:58.027Z,3232.00
2019-02-06T08:24:58.258Z,3240.00
2019-02-06T08:25:58.442Z,3260.00
2019-02-06T08:26:58.656Z,3308.00
2019-02-06T08:27:58.851Z,3372.00
2019-02-06T08:28:59.067Z,3424.00
2019-02-06T08:29:59.283Z,3424.00
2019-02-06T08:30:59.633Z,3380.00
2019-02-06T08:31:59.668Z,3452.00
2019-02-06T08:32:59.897Z,3392.00
2019-02-06T08:34:00.099Z,3408.00
2019-02-06T08:35:00.354Z,3356.00
2019-02-06T08:36:00.514Z,3368.00
2019-02-06T08:37:00.725Z,3524.00
2019-02-06T08:38:00.942Z,3524.00
2019-02-06T08:39:01.212Z,3500.00
2019-02-06T08:40:01.354Z,3488.00
2019-02-06T08:41:01.537Z,3468.00
2019-02-06T08:42:01.752Z,3508.00
2019-02-06T08:43:01.982Z,3532.00
2019-02-06T08:44:02.177Z,3544.00
2019-02-06T08:45:02.406Z,3580.00
2019-02-06T08:46:02.603Z,3600.00
2019-02-06T08:47:02.841Z,3656.00
2019-02-06T08:48:03.013Z,3588.00
2019-02-06T08:49:03.208Z,3576.00
2019-02-06T08:50:03.441Z,3656.00
2019-02-06T08:51:03.636Z,3620.00
2019-02-06T08:52:03.858Z,3628.00
2019-02-06T08:53:04.099Z,3700.00
2019-02-06T08:54:04.272Z,3728.00
2019-02-06T08:55:04.537Z,3876.00
2019-02-06T08:56:04.756Z,3968.00
2019-02-06T08:57:04.888Z,4116.00
2019-02-06T08:58:05.174Z,4240.00
2019-02-06T08:59:05.303Z,4260.00
2019-02-06T09:00:05.529Z,4260.00
2019-02-06T09:01:05.699Z,4248.00
2019-02-06T09:02:05.926Z,4300.00
2019-02-06T09:03:06.192Z,4208.00
2019-02-06T09:04:06.544Z,4176.00
2019-02-06T09:05:07.539Z,4284.00
2019-02-06T09:06:06.752Z,4272.00
2019-02-06T09:07:06.960Z,4392.00
2019-02-06T09:08:07.224Z,4336.00
2019-02-06T09:09:07.409Z,4296.00
2019-02-06T09:10:07.642Z,4388.00
2019-02-06T09:11:07.825Z,4392.00
2019-02-06T09:12:08.323Z,4556.00
2019-02-06T09:13:08.248Z,4632.00
2019-02-06T09:14:08.424Z,4700.00
2019-02-06T09:15:08.654Z,4736.00
2019-02-06T09:16:08.836Z,4744.00
2019-02-06T09:17:09.025Z,4796.00
2019-02-06T09:18:09.251Z,4800.00
2019-02-06T09:19:09.456Z,4760.00
2019-02-06T09:20:09.723Z,4712.00
2019-02-06T09:21:09.849Z,4608.00
2019-02-06T09:22:10.075Z,4580.00
2019-02-06T09:23:10.269Z,4676.00
2019-02-06T09:24:10.461Z,4748.00
2019-02-06T09:25:10.718Z,4748.00
2019-02-06T09:26:10.878Z,4716.00
2019-02-06T09:27:11.098Z,4716.00
2019-02-06T09:28:11.356Z,4660.00
2019-02-06T09:29:11.513Z,4692.00
2019-02-06T09:30:11.854Z,4636.00
2019-02-06T09:31:11.928Z,4580.00
2019-02-06T09:32:12.132Z,4540.00
2019-02-06T09:33:12.358Z,4560.00
2019-02-06T09:34:12.554Z,4556.00
2019-02-06T09:35:12.791Z,4572.00
2019-02-06T09:36:12.978Z,4564.00
2019-02-06T09:37:13.295Z,4568.00
2019-02-06T09:38:13.407Z,4592.00
2019-02-06T09:39:13.598Z,4628.00
2019-02-06T09:40:13.828Z,4656.00
2019-02-06T09:41:14.009Z,4692.00
2019-02-06T09:42:14.214Z,4708.00
2019-02-06T09:43:14.439Z,4764.00
2019-02-06T09:44:14.627Z,4828.00
2019-02-06T09:45:14.956Z,4912.00
2019-02-06T09:46:15.034Z,4984.00
2019-02-06T09:47:15.248Z,5064.00
2019-02-06T09:48:15.474Z,5096.00
2019-02-06T09:49:15.665Z,5084.00
2019-02-06T09:50:15.887Z,5040.00
2019-02-06T09:51:16.059Z,4920.00
2019-02-06T09:52:16.286Z,4820.00
2019-02-06T09:53:16.816Z,4720.00
2019-02-06T09:54:16.696Z,4708.00
2019-02-06T09:55:16.893Z,4712.00
2019-02-06T09:56:17.116Z,4652.00
2019-02-06T09:57:17.305Z,4588.00
2019-02-06T09:58:17.542Z,4532.00
2019-02-06T09:59:17.737Z,4520.00
2019-02-06T10:00:17.939Z,4516.00
2019-02-06T10:01:21.268Z,4544.00
2019-02-06T10:02:18.333Z,4596.00
2019-02-06T10:03:18.582Z,4628.00
2019-02-06T10:04:18.783Z,4692.00
2019-02-06T10:05:18.987Z,4764.00
2019-02-06T10:06:19.237Z,4928.00
2019-02-06T10:07:19.412Z,5008.00
2019-02-06T10:08:19.630Z,5132.00
2019-02-06T10:09:22.901Z,5148.00
2019-02-06T10:10:20.079Z,5120.00
2019-02-06T10:11:20.258Z,5112.00
2019-02-06T10:12:20.443Z,5200.00
2019-02-06T10:13:20.670Z,5220.00
2019-02-06T10:14:20.853Z,5328.00
2019-02-06T10:15:21.062Z,5412.00
2019-02-06T10:16:21.302Z,5380.00
2019-02-06T10:17:21.484Z,5356.00
2019-02-06T10:18:21.799Z,5408.00
2019-02-06T10:19:21.896Z,5100.00
2019-02-06T10:20:22.182Z,5004.00
2019-02-06T10:21:22.356Z,4924.00
2019-02-06T10:22:22.539Z,4908.00
2019-02-06T10:23:22.919Z,4952.00
2019-02-06T10:24:22.940Z,5100.00
2019-02-06T10:25:23.143Z,5108.00
2019-02-06T10:26:23.495Z,5064.00
2019-02-06T10:27:24.123Z,5020.00
2019-02-06T10:28:24.309Z,4976.00
2019-02-06T10:29:23.947Z,4904.00
2019-02-06T10:30:24.177Z,4976.00
2019-02-06T10:31:24.426Z,4972.00
2019-02-06T10:32:24.608Z,4996.00
2019-02-06T10:33:24.831Z,4884.00
2019-02-06T10:34:25.064Z,4736.00
2019-02-06T10:35:25.195Z,4592.00
2019-02-06T10:36:25.455Z,4476.00
2019-02-06T10:37:25.641Z,4488.00
2019-02-06T10:38:25.864Z,4328.00
2019-02-06T10:39:34.331Z,4256.00
2019-02-06T10:40:27.259Z,4196.00
2019-02-06T10:41:26.487Z,4080.00
2019-02-06T10:42:26.690Z,4052.00
2019-02-06T10:43:32.048Z,4092.00
2019-02-06T10:44:28.084Z,4172.00
2019-02-06T10:45:27.285Z,4320.00
2019-02-06T10:46:27.530Z,4388.00
2019-02-06T10:47:27.682Z,4576.00
2019-02-06T10:48:27.910Z,4792.00
2019-02-06T10:49:28.111Z,4968.00
2019-02-06T10:50:28.338Z,5132.00
2019-02-06T10:51:28.635Z,5272.00
2019-02-06T10:52:28.716Z,5432.00
2019-02-06T10:53:28.941Z,5572.00
2019-02-06T10:54:29.152Z,5644.00
2019-02-06T10:55:29.372Z,5696.00
2019-02-06T10:56:29.598Z,5468.00
2019-02-06T10:57:29.778Z,5288.00
2019-02-06T10:58:29.971Z,5360.00
2019-02-06T10:59:30.298Z,5416.00
2019-02-06T11:00:30.434Z,5560.00
2019-02-06T11:01:30.669Z,5792.00
2019-02-06T11:02:30.844Z,6024.00
2019-02-06T11:03:31.043Z,6092.00
2019-02-06T11:04:31.281Z,6096.00
2019-02-06T11:05:31.493Z,6008.00
2019-02-06T11:06:31.725Z,6020.00
2019-02-06T11:07:31.970Z,5976.00
2019-02-06T11:08:32.090Z,5856.00
2019-02-06T11:09:32.325Z,5968.00
2019-02-06T11:10:32.538Z,5796.00
2019-02-06T11:11:32.743Z,5620.00
2019-02-06T11:12:32.927Z,5576.00
2019-02-06T11:13:33.134Z,5576.00
2019-02-06T11:14:33.351Z,5496.00
2019-02-06T11:15:33.605Z,5624.00
2019-02-06T11:16:33.752Z,5808.00
2019-02-06T11:17:33.959Z,5888.00
2019-02-06T11:18:34.157Z,5960.00
2019-02-06T11:19:34.377Z,6008.00
2019-02-06T11:20:34.553Z,6216.00
2019-02-06T11:21:34.771Z,6308.00
2019-02-06T11:22:34.989Z,6464.00
2019-02-06T11:23:35.228Z,6568.00
2019-02-06T11:24:35.443Z,6836.00
2019-02-06T11:25:35.589Z,6952.00
2019-02-06T11:26:35.812Z,7204.00
2019-02-06T11:27:36.020Z,7456.00
2019-02-06T11:28:36.210Z,7580.00
2019-02-06T11:29:36.440Z,7544.00
2019-02-06T11:30:36.636Z,7544.00
2019-02-06T11:31:36.867Z,7496.00
2019-02-06T11:32:37.143Z,7420.00
2019-02-06T11:33:37.476Z,7376.00
2019-02-06T11:34:37.475Z,7396.00
2019-02-06T11:35:37.659Z,7464.00
2019-02-06T11:36:37.884Z,7524.00
2019-02-06T11:37:38.084Z,7632.00
2019-02-06T11:38:38.274Z,7840.00
2019-02-06T11:39:38.515Z,7980.00
2019-02-06T11:40:38.814Z,8116.00
2019-02-06T11:41:38.909Z,8204.00
2019-02-06T11:42:39.110Z,8260.00
2019-02-06T11:43:39.337Z,8248.00
2019-02-06T11:44:39.567Z,8220.00
2019-02-06T11:45:39.762Z,8128.00
2019-02-06T11:46:39.975Z,7984.00
2019-02-06T11:47:40.161Z,7876.00
2019-02-06T11:48:43.220Z,7700.00
2019-02-06T11:49:40.581Z,7600.00
2019-02-06T11:50:40.795Z,7476.00
2019-02-06T11:51:41.004Z,7284.00
2019-02-06T11:52:41.203Z,7128.00
2019-02-06T11:53:41.389Z,6908.00
2019-02-06T11:54:41.625Z,6640.00
2019-02-06T11:55:41.833Z,6440.00
2019-02-06T11:56:42.097Z,6280.00
2019-02-06T11:57:42.237Z,6140.00
2019-02-06T11:58:42.436Z,6068.00
2019-02-06T11:59:42.650Z,5936.00
2019-02-06T12:00:42.846Z,5692.00
2019-02-06T12:01:43.058Z,5440.00
2019-02-06T12:02:43.282Z,5144.00
2019-02-06T12:03:43.472Z,5084.00
2019-02-06T12:04:43.822Z,4996.00
2019-02-06T12:05:43.925Z,4896.00
2019-02-06T12:06:44.083Z,4820.00
2019-02-06T12:07:44.323Z,4760.00
2019-02-06T12:08:44.522Z,4756.00
2019-02-06T12:09:44.750Z,4804.00
2019-02-06T12:10:44.926Z,4804.00
2019-02-06T12:11:45.145Z,4788.00
2019-02-06T12:12:45.410Z,4876.00
2019-02-06T12:13:51.219Z,5016.00
2019-02-06T12:14:45.797Z,5124.00
2019-02-06T12:15:45.981Z,5200.00
2019-02-06T12:16:46.217Z,5280.00
2019-02-06T12:17:46.488Z,5348.00
2019-02-06T12:18:46.887Z,5444.00
2019-02-06T12:19:46.856Z,5532.00
2019-02-06T12:20:47.039Z,5636.00
2019-02-06T12:21:47.373Z,5684.00
2019-02-06T12:22:47.501Z,5696.00
2019-02-06T12:23:48.206Z,5692.00
2019-02-06T12:24:47.906Z,5680.00
2019-02-06T12:25:48.080Z,5632.00
2019-02-06T12:26:48.274Z,5592.00
2019-02-06T12:27:48.991Z,5584.00
2019-02-06T12:28:48.705Z,5644.00
2019-02-06T12:29:48.991Z,5736.00
2019-02-06T12:30:49.500Z,5828.00
2019-02-06T12:31:49.313Z,5916.00
2019-02-06T12:32:52.292Z,6024.00
2019-02-06T12:33:49.925Z,6128.00
2019-02-06T12:34:49.944Z,6176.00
2019-02-06T12:35:50.139Z,6116.00
2019-02-06T12:36:50.350Z,6016.00
2019-02-06T12:37:50.596Z,5948.00
2019-02-06T12:38:53.611Z,5904.00
2019-02-06T12:39:50.973Z,5840.00
2019-02-06T12:40:52.008Z,5772.00
2019-02-06T12:41:51.378Z,5672.00
2019-02-06T12:42:51.604Z,5576.00
2019-02-06T12:43:51.799Z,5444.00